sensor_id;sensor_type;location;lat;lon;timestamp;temperature;humidity
20712;DHT22;10517;50.742;4.224;2023-04-24T00:00:34;10.30;99.90
20712;DHT22;10517;50.742;4.224;2023-04-24T00:03:01;10.20;99.90
20712;DHT22;10517;50.742;4.224;2023-04-24T00:05:28;10.20;99.90
20712;DHT22;10517;50.742;4.224;2023-04-24T00:07:54;10.20;99.90
20712;DHT22;10517;50.742;4.224;2023-04-24T00:10:20;10.20;99.90
20712;DHT22;10517;50.742;4.224;2023-04-24T00:12:46;10.20;99.90
20712;DHT22;10517;50.742;4.224;2023-04-24T00:15:12;10.20;99.90
20712;DHT22;10517;50.742;4.224;2023-04-24T00:17:38;10.20;99.90
20712;DHT22;10517;50.742;4.224;2023-04-24T00:20:04;10.20;99.90
20712;DHT22;10517;50.742;4.224;2023-04-24T00:22:32;10.20;99.90
20712;DHT22;10517;50.742;4.224;2023-04-24T00:24:58;10.20;99.90
20712;DHT22;10517;50.742;4.224;2023-04-24T00:27:23;10.30;99.90
20712;DHT22;10517;50.742;4.224;2023-04-24T00:29:49;10.30;99.90
20712;DHT22;10517;50.742;4.224;2023-04-24T00:32:15;10.20;99.90
20712;DHT22;10517;50.742;4.224;2023-04-24T00:34:41;10.30;99.90
20712;DHT22;10517;50.742;4.224;2023-04-24T00:37:07;10.20;99.90
20712;DHT22;10517;50.742;4.224;2023-04-24T00:39:33;10.20;99.90
20712;DHT22;10517;50.742;4.224;2023-04-24T00:41:59;10.30;99.90
20712;DHT22;10517;50.742;4.224;2023-04-24T00:44:25;10.20;99.90
20712;DHT22;10517;50.742;4.224;2023-04-24T00:46:50;10.20;99.90
20712;DHT22;10517;50.742;4.224;2023-04-24T00:49:23;10.20;99.90
20712;DHT22;10517;50.742;4.224;2023-04-24T00:51:49;10.10;99.90
20712;DHT22;10517;50.742;4.224;2023-04-24T00:54:17;10.10;99.90
20712;DHT22;10517;50.742;4.224;2023-04-24T00:56:44;10.00;99.90
20712;DHT22;10517;50.742;4.224;2023-04-24T00:59:11;10.00;99.90
20712;DHT22;10517;50.742;4.224;2023-04-24T01:01:36;10.00;99.90
20712;DHT22;10517;50.742;4.224;2023-04-24T01:04:02;9.90;99.90
20712;DHT22;10517;50.742;4.224;2023-04-24T01:06:29;9.80;99.90
20712;DHT22;10517;50.742;4.224;2023-04-24T01:08:57;9.80;99.90
20712;DHT22;10517;50.742;4.224;2023-04-24T01:11:24;9.80;99.90
20712;DHT22;10517;50.742;4.224;2023-04-24T01:13:50;9.60;99.90
20712;DHT22;10517;50.742;4.224;2023-04-24T01:16:15;9.60;99.90
20712;DHT22;10517;50.742;4.224;2023-04-24T01:18:43;9.70;99.90
20712;DHT22;10517;50.742;4.224;2023-04-24T01:21:09;9.60;99.90
20712;DHT22;10517;50.742;4.224;2023-04-24T01:23:38;9.60;99.90
20712;DHT22;10517;50.742;4.224;2023-04-24T01:26:03;9.50;99.90
20712;DHT22;10517;50.742;4.224;2023-04-24T01:28:29;9.60;99.90
20712;DHT22;10517;50.742;4.224;2023-04-24T01:30:55;9.60;99.90
20712;DHT22;10517;50.742;4.224;2023-04-24T01:33:22;9.60;99.90
20712;DHT22;10517;50.742;4.224;2023-04-24T01:35:48;9.60;99.90
20712;DHT22;10517;50.742;4.224;2023-04-24T01:38:14;9.60;99.90
20712;DHT22;10517;50.742;4.224;2023-04-24T01:40:40;9.70;99.90
20712;DHT22;10517;50.742;4.224;2023-04-24T01:43:05;9.60;99.90
20712;DHT22;10517;50.742;4.224;2023-04-24T01:45:31;9.60;99.90
20712;DHT22;10517;50.742;4.224;2023-04-24T01:47:57;9.60;99.90
20712;DHT22;10517;50.742;4.224;2023-04-24T01:50:23;9.60;99.90
20712;DHT22;10517;50.742;4.224;2023-04-24T01:52:49;9.60;99.90
20712;DHT22;10517;50.742;4.224;2023-04-24T01:55:14;9.60;99.90
20712;DHT22;10517;50.742;4.224;2023-04-24T01:57:40;9.50;99.90
20712;DHT22;10517;50.742;4.224;2023-04-24T02:00:06;9.50;99.90
20712;DHT22;10517;50.742;4.224;2023-04-24T02:02:33;9.50;99.90
20712;DHT22;10517;50.742;4.224;2023-04-24T02:04:59;9.50;99.90
20712;DHT22;10517;50.742;4.224;2023-04-24T02:07:24;9.50;99.90
20712;DHT22;10517;50.742;4.224;2023-04-24T02:09:50;9.50;99.90
20712;DHT22;10517;50.742;4.224;2023-04-24T02:12:16;9.50;99.90
20712;DHT22;10517;50.742;4.224;2023-04-24T02:14:43;9.50;99.90
20712;DHT22;10517;50.742;4.224;2023-04-24T02:17:09;9.50;99.90
20712;DHT22;10517;50.742;4.224;2023-04-24T02:19:34;9.50;99.90
20712;DHT22;10517;50.742;4.224;2023-04-24T02:22:00;9.60;99.90
20712;DHT22;10517;50.742;4.224;2023-04-24T02:24:25;9.60;99.90
20712;DHT22;10517;50.742;4.224;2023-04-24T02:26:51;9.60;99.90
20712;DHT22;10517;50.742;4.224;2023-04-24T02:29:17;9.50;99.90
20712;DHT22;10517;50.742;4.224;2023-04-24T02:31:43;9.50;99.90
20712;DHT22;10517;50.742;4.224;2023-04-24T02:34:09;9.50;99.90
20712;DHT22;10517;50.742;4.224;2023-04-24T02:36:34;9.50;99.90
20712;DHT22;10517;50.742;4.224;2023-04-24T02:39:00;9.40;99.90
20712;DHT22;10517;50.742;4.224;2023-04-24T02:41:26;9.40;99.90
20712;DHT22;10517;50.742;4.224;2023-04-24T02:43:57;9.50;99.90
20712;DHT22;10517;50.742;4.224;2023-04-24T02:46:23;9.50;99.90
20712;DHT22;10517;50.742;4.224;2023-04-24T02:48:48;9.60;99.90
20712;DHT22;10517;50.742;4.224;2023-04-24T02:51:14;9.50;99.90
20712;DHT22;10517;50.742;4.224;2023-04-24T02:53:40;9.50;99.90
20712;DHT22;10517;50.742;4.224;2023-04-24T02:56:05;9.50;99.90
20712;DHT22;10517;50.742;4.224;2023-04-24T02:58:31;9.50;99.90
20712;DHT22;10517;50.742;4.224;2023-04-24T03:00:57;9.50;99.90
20712;DHT22;10517;50.742;4.224;2023-04-24T03:03:22;9.50;99.90
20712;DHT22;10517;50.742;4.224;2023-04-24T03:05:49;9.50;99.90
20712;DHT22;10517;50.742;4.224;2023-04-24T03:08:14;9.50;99.90
20712;DHT22;10517;50.742;4.224;2023-04-24T03:10:40;9.50;99.90
20712;DHT22;10517;50.742;4.224;2023-04-24T03:13:06;9.50;99.90
20712;DHT22;10517;50.742;4.224;2023-04-24T03:15:31;9.40;99.90
20712;DHT22;10517;50.742;4.224;2023-04-24T03:17:57;9.40;99.90
20712;DHT22;10517;50.742;4.224;2023-04-24T03:20:23;9.30;99.90
20712;DHT22;10517;50.742;4.224;2023-04-24T03:22:49;9.40;99.90
20712;DHT22;10517;50.742;4.224;2023-04-24T03:25:14;9.40;99.90
20712;DHT22;10517;50.742;4.224;2023-04-24T03:27:40;9.50;99.90
20712;DHT22;10517;50.742;4.224;2023-04-24T03:30:07;9.40;99.90
20712;DHT22;10517;50.742;4.224;2023-04-24T03:32:33;9.40;99.90
20712;DHT22;10517;50.742;4.224;2023-04-24T03:34:58;9.20;99.90
20712;DHT22;10517;50.742;4.224;2023-04-24T03:37:24;9.10;99.90
20712;DHT22;10517;50.742;4.224;2023-04-24T03:39:50;9.10;99.90
20712;DHT22;10517;50.742;4.224;2023-04-24T03:42:16;9.10;99.90
20712;DHT22;10517;50.742;4.224;2023-04-24T03:44:42;9.30;99.90
20712;DHT22;10517;50.742;4.224;2023-04-24T03:47:07;9.20;99.90
20712;DHT22;10517;50.742;4.224;2023-04-24T03:49:33;9.20;99.90
20712;DHT22;10517;50.742;4.224;2023-04-24T03:51:58;9.10;99.90
20712;DHT22;10517;50.742;4.224;2023-04-24T03:54:24;8.90;99.90
20712;DHT22;10517;50.742;4.224;2023-04-24T03:56:50;8.80;99.90
20712;DHT22;10517;50.742;4.224;2023-04-24T03:59:16;8.70;99.90
20712;DHT22;10517;50.742;4.224;2023-04-24T04:01:41;8.70;99.90
20712;DHT22;10517;50.742;4.224;2023-04-24T04:04:07;8.70;99.90
20712;DHT22;10517;50.742;4.224;2023-04-24T04:06:33;8.60;99.90
20712;DHT22;10517;50.742;4.224;2023-04-24T04:08:59;8.60;99.90
20712;DHT22;10517;50.742;4.224;2023-04-24T04:11:26;8.60;99.90
20712;DHT22;10517;50.742;4.224;2023-04-24T04:13:52;8.70;99.90
20712;DHT22;10517;50.742;4.224;2023-04-24T04:16:17;8.60;99.90
20712;DHT22;10517;50.742;4.224;2023-04-24T04:18:43;8.60;99.90
20712;DHT22;10517;50.742;4.224;2023-04-24T04:21:10;8.70;99.90
20712;DHT22;10517;50.742;4.224;2023-04-24T04:23:35;8.70;99.90
20712;DHT22;10517;50.742;4.224;2023-04-24T04:26:02;8.70;99.90
20712;DHT22;10517;50.742;4.224;2023-04-24T04:28:29;8.70;99.90
20712;DHT22;10517;50.742;4.224;2023-04-24T04:30:56;8.80;99.90
20712;DHT22;10517;50.742;4.224;2023-04-24T04:33:23;8.70;99.90
20712;DHT22;10517;50.742;4.224;2023-04-24T04:35:49;8.70;99.90
20712;DHT22;10517;50.742;4.224;2023-04-24T04:38:15;8.70;99.90
20712;DHT22;10517;50.742;4.224;2023-04-24T04:40:42;8.70;99.90
20712;DHT22;10517;50.742;4.224;2023-04-24T04:43:08;8.60;99.90
20712;DHT22;10517;50.742;4.224;2023-04-24T04:45:33;8.60;99.90
20712;DHT22;10517;50.742;4.224;2023-04-24T04:48:00;8.50;99.90
20712;DHT22;10517;50.742;4.224;2023-04-24T04:50:27;8.50;99.90
20712;DHT22;10517;50.742;4.224;2023-04-24T04:52:53;8.50;99.90
20712;DHT22;10517;50.742;4.224;2023-04-24T04:55:18;8.50;99.90
20712;DHT22;10517;50.742;4.224;2023-04-24T04:57:47;8.50;99.90
20712;DHT22;10517;50.742;4.224;2023-04-24T05:00:13;8.50;99.90
20712;DHT22;10517;50.742;4.224;2023-04-24T05:02:39;8.50;99.90
20712;DHT22;10517;50.742;4.224;2023-04-24T05:05:06;8.50;99.90
20712;DHT22;10517;50.742;4.224;2023-04-24T05:07:31;8.50;99.90
20712;DHT22;10517;50.742;4.224;2023-04-24T05:09:57;8.40;99.90
20712;DHT22;10517;50.742;4.224;2023-04-24T05:12:23;8.40;99.90
20712;DHT22;10517;50.742;4.224;2023-04-24T05:14:48;8.40;99.90
20712;DHT22;10517;50.742;4.224;2023-04-24T05:17:15;8.50;99.90
20712;DHT22;10517;50.742;4.224;2023-04-24T05:19:40;8.50;99.90
20712;DHT22;10517;50.742;4.224;2023-04-24T05:22:06;8.40;99.90
20712;DHT22;10517;50.742;4.224;2023-04-24T05:24:35;8.40;99.90
20712;DHT22;10517;50.742;4.224;2023-04-24T05:27:02;8.40;99.90
20712;DHT22;10517;50.742;4.224;2023-04-24T05:29:28;8.40;99.90
20712;DHT22;10517;50.742;4.224;2023-04-24T05:31:56;8.40;99.90
20712;DHT22;10517;50.742;4.224;2023-04-24T05:34:22;8.40;99.90
20712;DHT22;10517;50.742;4.224;2023-04-24T05:36:48;8.30;99.90
20712;DHT22;10517;50.742;4.224;2023-04-24T05:39:14;8.30;99.90
20712;DHT22;10517;50.742;4.224;2023-04-24T05:41:40;8.30;99.90
20712;DHT22;10517;50.742;4.224;2023-04-24T05:44:06;8.30;99.90
20712;DHT22;10517;50.742;4.224;2023-04-24T05:46:31;8.30;99.90
20712;DHT22;10517;50.742;4.224;2023-04-24T05:48:57;8.30;99.90
20712;DHT22;10517;50.742;4.224;2023-04-24T05:51:23;8.30;99.90
20712;DHT22;10517;50.742;4.224;2023-04-24T05:53:49;8.30;99.90
20712;DHT22;10517;50.742;4.224;2023-04-24T05:56:15;8.30;99.90
20712;DHT22;10517;50.742;4.224;2023-04-24T05:58:41;8.30;99.90
20712;DHT22;10517;50.742;4.224;2023-04-24T06:01:06;8.30;99.90
20712;DHT22;10517;50.742;4.224;2023-04-24T06:03:32;8.30;99.90
20712;DHT22;10517;50.742;4.224;2023-04-24T06:05:58;8.30;99.90
20712;DHT22;10517;50.742;4.224;2023-04-24T06:08:23;8.30;99.90
20712;DHT22;10517;50.742;4.224;2023-04-24T06:10:49;8.30;99.90
20712;DHT22;10517;50.742;4.224;2023-04-24T06:13:15;8.20;99.90
20712;DHT22;10517;50.742;4.224;2023-04-24T06:15:43;8.30;99.90
20712;DHT22;10517;50.742;4.224;2023-04-24T06:18:08;8.30;99.90
20712;DHT22;10517;50.742;4.224;2023-04-24T06:20:36;8.30;99.90
20712;DHT22;10517;50.742;4.224;2023-04-24T06:23:01;8.40;99.90
20712;DHT22;10517;50.742;4.224;2023-04-24T06:25:27;8.40;99.90
20712;DHT22;10517;50.742;4.224;2023-04-24T06:27:54;8.40;99.90
20712;DHT22;10517;50.742;4.224;2023-04-24T06:30:20;8.40;99.90
20712;DHT22;10517;50.742;4.224;2023-04-24T06:32:46;8.40;99.90
20712;DHT22;10517;50.742;4.224;2023-04-24T06:35:11;8.40;99.90
20712;DHT22;10517;50.742;4.224;2023-04-24T06:37:39;8.50;99.90
20712;DHT22;10517;50.742;4.224;2023-04-24T06:40:06;8.50;99.90
20712;DHT22;10517;50.742;4.224;2023-04-24T06:42:31;8.60;99.90
20712;DHT22;10517;50.742;4.224;2023-04-24T06:44:57;8.60;99.90
20712;DHT22;10517;50.742;4.224;2023-04-24T06:47:23;8.70;99.90
20712;DHT22;10517;50.742;4.224;2023-04-24T06:49:48;8.70;99.90
20712;DHT22;10517;50.742;4.224;2023-04-24T06:52:16;8.80;99.90
20712;DHT22;10517;50.742;4.224;2023-04-24T06:54:42;8.80;99.90
20712;DHT22;10517;50.742;4.224;2023-04-24T06:57:08;8.90;99.90
20712;DHT22;10517;50.742;4.224;2023-04-24T06:59:34;9.00;99.90
20712;DHT22;10517;50.742;4.224;2023-04-24T07:02:00;9.00;99.90
20712;DHT22;10517;50.742;4.224;2023-04-24T07:04:25;9.00;99.90
20712;DHT22;10517;50.742;4.224;2023-04-24T07:06:51;9.00;99.90
20712;DHT22;10517;50.742;4.224;2023-04-24T07:09:19;9.10;99.90
20712;DHT22;10517;50.742;4.224;2023-04-24T07:11:45;9.10;99.90
20712;DHT22;10517;50.742;4.224;2023-04-24T07:14:11;9.30;99.90
20712;DHT22;10517;50.742;4.224;2023-04-24T07:16:37;9.40;99.90
20712;DHT22;10517;50.742;4.224;2023-04-24T07:19:03;9.40;99.90
20712;DHT22;10517;50.742;4.224;2023-04-24T07:21:29;9.30;99.90
20712;DHT22;10517;50.742;4.224;2023-04-24T07:23:57;9.30;99.90
20712;DHT22;10517;50.742;4.224;2023-04-24T07:26:23;9.20;99.90
20712;DHT22;10517;50.742;4.224;2023-04-24T07:28:49;9.30;99.90
20712;DHT22;10517;50.742;4.224;2023-04-24T07:31:14;9.30;99.90
20712;DHT22;10517;50.742;4.224;2023-04-24T07:33:40;9.40;99.90
20712;DHT22;10517;50.742;4.224;2023-04-24T07:36:06;9.40;99.90
20712;DHT22;10517;50.742;4.224;2023-04-24T07:38:32;9.40;99.90
20712;DHT22;10517;50.742;4.224;2023-04-24T07:40:57;9.50;99.90
20712;DHT22;10517;50.742;4.224;2023-04-24T07:43:23;9.70;99.90
20712;DHT22;10517;50.742;4.224;2023-04-24T07:45:50;9.70;99.90
20712;DHT22;10517;50.742;4.224;2023-04-24T07:48:16;9.80;99.90
20712;DHT22;10517;50.742;4.224;2023-04-24T07:50:43;9.80;99.90
20712;DHT22;10517;50.742;4.224;2023-04-24T07:53:09;9.60;99.90
20712;DHT22;10517;50.742;4.224;2023-04-24T07:55:34;9.40;99.90
20712;DHT22;10517;50.742;4.224;2023-04-24T07:58:00;9.30;99.90
20712;DHT22;10517;50.742;4.224;2023-04-24T08:00:26;9.20;99.90
20712;DHT22;10517;50.742;4.224;2023-04-24T08:02:51;9.20;99.90
20712;DHT22;10517;50.742;4.224;2023-04-24T08:05:17;9.30;99.90
20712;DHT22;10517;50.742;4.224;2023-04-24T08:07:43;9.40;99.90
20712;DHT22;10517;50.742;4.224;2023-04-24T08:10:10;9.50;99.90
20712;DHT22;10517;50.742;4.224;2023-04-24T08:12:37;9.70;99.90
20712;DHT22;10517;50.742;4.224;2023-04-24T08:15:03;9.80;99.90
20712;DHT22;10517;50.742;4.224;2023-04-24T08:17:29;9.90;99.90
20712;DHT22;10517;50.742;4.224;2023-04-24T08:19:54;9.90;99.90
20712;DHT22;10517;50.742;4.224;2023-04-24T08:22:27;10.00;99.90
20712;DHT22;10517;50.742;4.224;2023-04-24T08:24:53;9.90;99.90
20712;DHT22;10517;50.742;4.224;2023-04-24T08:27:19;10.00;99.90
20712;DHT22;10517;50.742;4.224;2023-04-24T08:29:44;10.30;99.90
20712;DHT22;10517;50.742;4.224;2023-04-24T08:32:10;10.30;99.90
20712;DHT22;10517;50.742;4.224;2023-04-24T08:34:35;10.40;99.90
20712;DHT22;10517;50.742;4.224;2023-04-24T08:37:02;10.60;99.90
20712;DHT22;10517;50.742;4.224;2023-04-24T08:39:28;10.70;99.90
20712;DHT22;10517;50.742;4.224;2023-04-24T08:41:56;10.90;99.90
20712;DHT22;10517;50.742;4.224;2023-04-24T08:44:21;11.10;99.90
20712;DHT22;10517;50.742;4.224;2023-04-24T08:46:50;11.00;99.90
20712;DHT22;10517;50.742;4.224;2023-04-24T08:49:17;10.80;99.90
20712;DHT22;10517;50.742;4.224;2023-04-24T08:51:44;11.00;99.90
20712;DHT22;10517;50.742;4.224;2023-04-24T08:54:12;11.00;99.90
20712;DHT22;10517;50.742;4.224;2023-04-24T08:56:38;11.10;99.90
20712;DHT22;10517;50.742;4.224;2023-04-24T08:59:06;11.10;99.90
20712;DHT22;10517;50.742;4.224;2023-04-24T09:01:32;11.00;99.90
20712;DHT22;10517;50.742;4.224;2023-04-24T09:04:03;10.80;99.90
20712;DHT22;10517;50.742;4.224;2023-04-24T09:06:30;10.70;99.90
20712;DHT22;10517;50.742;4.224;2023-04-24T09:09:00;10.50;99.90
20712;DHT22;10517;50.742;4.224;2023-04-24T09:11:26;10.60;99.90
20712;DHT22;10517;50.742;4.224;2023-04-24T09:13:53;10.60;99.90
20712;DHT22;10517;50.742;4.224;2023-04-24T09:16:20;10.70;99.90
20712;DHT22;10517;50.742;4.224;2023-04-24T09:18:46;10.90;99.90
20712;DHT22;10517;50.742;4.224;2023-04-24T09:21:12;11.20;99.90
20712;DHT22;10517;50.742;4.224;2023-04-24T09:23:38;11.10;99.90
20712;DHT22;10517;50.742;4.224;2023-04-24T09:26:04;11.00;99.90
20712;DHT22;10517;50.742;4.224;2023-04-24T09:28:36;11.00;99.90
20712;DHT22;10517;50.742;4.224;2023-04-24T09:31:20;11.00;99.90
20712;DHT22;10517;50.742;4.224;2023-04-24T09:36:19;11.20;99.90
20712;DHT22;10517;50.742;4.224;2023-04-24T09:38:57;11.30;99.90
20712;DHT22;10517;50.742;4.224;2023-04-24T09:41:23;11.50;99.90
20712;DHT22;10517;50.742;4.224;2023-04-24T09:43:48;11.60;99.90
20712;DHT22;10517;50.742;4.224;2023-04-24T09:46:18;11.50;99.90
20712;DHT22;10517;50.742;4.224;2023-04-24T09:48:43;11.40;99.90
20712;DHT22;10517;50.742;4.224;2023-04-24T09:51:09;11.50;99.90
20712;DHT22;10517;50.742;4.224;2023-04-24T09:53:38;11.50;99.90
20712;DHT22;10517;50.742;4.224;2023-04-24T09:56:09;11.30;99.90
20712;DHT22;10517;50.742;4.224;2023-04-24T09:58:38;11.40;99.90
20712;DHT22;10517;50.742;4.224;2023-04-24T10:01:05;11.40;99.90
20712;DHT22;10517;50.742;4.224;2023-04-24T10:03:32;11.30;99.90
20712;DHT22;10517;50.742;4.224;2023-04-24T10:06:04;11.20;99.90
20712;DHT22;10517;50.742;4.224;2023-04-24T10:08:37;11.20;99.90
20712;DHT22;10517;50.742;4.224;2023-04-24T10:11:05;11.20;99.90
20712;DHT22;10517;50.742;4.224;2023-04-24T10:13:32;11.20;99.90
20712;DHT22;10517;50.742;4.224;2023-04-24T10:15:59;11.40;99.90
20712;DHT22;10517;50.742;4.224;2023-04-24T10:18:26;11.80;99.90
20712;DHT22;10517;50.742;4.224;2023-04-24T10:20:53;12.10;99.90
20712;DHT22;10517;50.742;4.224;2023-04-24T10:23:20;12.20;99.90
20712;DHT22;10517;50.742;4.224;2023-04-24T10:25:46;12.20;99.90
20712;DHT22;10517;50.742;4.224;2023-04-24T10:28:12;12.20;99.90
20712;DHT22;10517;50.742;4.224;2023-04-24T10:30:39;12.10;99.90
20712;DHT22;10517;50.742;4.224;2023-04-24T10:33:08;12.20;99.90
20712;DHT22;10517;50.742;4.224;2023-04-24T10:35:37;12.00;99.90
20712;DHT22;10517;50.742;4.224;2023-04-24T10:38:11;11.90;99.90
20712;DHT22;10517;50.742;4.224;2023-04-24T10:40:37;11.70;99.90
20712;DHT22;10517;50.742;4.224;2023-04-24T10:43:07;11.60;99.90
20712;DHT22;10517;50.742;4.224;2023-04-24T10:45:35;11.50;99.90
20712;DHT22;10517;50.742;4.224;2023-04-24T10:48:04;11.40;99.90
20712;DHT22;10517;50.742;4.224;2023-04-24T10:50:51;11.40;99.90
20712;DHT22;10517;50.742;4.224;2023-04-24T10:53:18;11.80;99.90
20712;DHT22;10517;50.742;4.224;2023-04-24T10:55:51;12.20;99.90
20712;DHT22;10517;50.742;4.224;2023-04-24T10:58:21;12.20;99.90
20712;DHT22;10517;50.742;4.224;2023-04-24T11:00:58;12.20;99.90
20712;DHT22;10517;50.742;4.224;2023-04-24T11:03:30;11.90;99.90
20712;DHT22;10517;50.742;4.224;2023-04-24T11:06:08;12.00;99.90
20712;DHT22;10517;50.742;4.224;2023-04-24T11:08:45;11.90;99.90
20712;DHT22;10517;50.742;4.224;2023-04-24T11:11:16;12.10;99.90
20712;DHT22;10517;50.742;4.224;2023-04-24T11:19:08;11.80;99.90
20712;DHT22;10517;50.742;4.224;2023-04-24T11:21:49;11.80;99.90
20712;DHT22;10517;50.742;4.224;2023-04-24T11:27:15;11.80;99.90
20712;DHT22;10517;50.742;4.224;2023-04-24T11:29:47;11.70;99.90
20712;DHT22;10517;50.742;4.224;2023-04-24T11:35:01;11.90;99.90
20712;DHT22;10517;50.742;4.224;2023-04-24T11:37:48;12.20;99.90
20712;DHT22;10517;50.742;4.224;2023-04-24T11:40:16;12.50;99.90
20712;DHT22;10517;50.742;4.224;2023-04-24T11:42:44;12.60;99.90
20712;DHT22;10517;50.742;4.224;2023-04-24T11:45:11;12.70;99.90
20712;DHT22;10517;50.742;4.224;2023-04-24T11:47:38;12.90;99.90
20712;DHT22;10517;50.742;4.224;2023-04-24T11:50:06;13.00;99.90
20712;DHT22;10517;50.742;4.224;2023-04-24T11:52:33;13.20;99.90
20712;DHT22;10517;50.742;4.224;2023-04-24T11:55:02;13.10;99.90
20712;DHT22;10517;50.742;4.224;2023-04-24T11:57:29;13.60;99.90
20712;DHT22;10517;50.742;4.224;2023-04-24T11:59:59;13.20;99.90
20712;DHT22;10517;50.742;4.224;2023-04-24T12:02:27;13.30;99.90
20712;DHT22;10517;50.742;4.224;2023-04-24T12:04:55;13.30;99.90
20712;DHT22;10517;50.742;4.224;2023-04-24T12:07:22;13.00;99.90
20712;DHT22;10517;50.742;4.224;2023-04-24T12:09:56;13.20;99.90
20712;DHT22;10517;50.742;4.224;2023-04-24T12:12:25;13.70;99.90
20712;DHT22;10517;50.742;4.224;2023-04-24T12:14:56;13.30;99.90
20712;DHT22;10517;50.742;4.224;2023-04-24T12:17:30;13.30;99.90
20712;DHT22;10517;50.742;4.224;2023-04-24T12:20:04;13.30;99.90
20712;DHT22;10517;50.742;4.224;2023-04-24T12:22:43;13.70;99.90
20712;DHT22;10517;50.742;4.224;2023-04-24T12:25:13;13.60;99.90
20712;DHT22;10517;50.742;4.224;2023-04-24T12:27:39;13.20;99.90
20712;DHT22;10517;50.742;4.224;2023-04-24T12:30:09;13.00;99.90
20712;DHT22;10517;50.742;4.224;2023-04-24T12:32:35;13.10;99.90
20712;DHT22;10517;50.742;4.224;2023-04-24T12:35:00;13.00;99.90
20712;DHT22;10517;50.742;4.224;2023-04-24T12:37:31;12.80;99.90
20712;DHT22;10517;50.742;4.224;2023-04-24T12:40:11;12.90;99.90
20712;DHT22;10517;50.742;4.224;2023-04-24T12:42:47;13.00;99.90
20712;DHT22;10517;50.742;4.224;2023-04-24T12:45:13;13.00;99.90
20712;DHT22;10517;50.742;4.224;2023-04-24T12:47:40;13.30;99.90
20712;DHT22;10517;50.742;4.224;2023-04-24T12:50:08;13.50;99.90
20712;DHT22;10517;50.742;4.224;2023-04-24T12:52:34;13.40;99.90
20712;DHT22;10517;50.742;4.224;2023-04-24T12:55:00;13.10;99.90
20712;DHT22;10517;50.742;4.224;2023-04-24T12:57:28;12.80;99.90
20712;DHT22;10517;50.742;4.224;2023-04-24T12:59:55;12.50;99.90
20712;DHT22;10517;50.742;4.224;2023-04-24T13:02:25;12.50;99.90
20712;DHT22;10517;50.742;4.224;2023-04-24T13:04:52;12.60;99.90
20712;DHT22;10517;50.742;4.224;2023-04-24T13:07:18;12.90;99.90
20712;DHT22;10517;50.742;4.224;2023-04-24T13:09:44;12.70;99.90
20712;DHT22;10517;50.742;4.224;2023-04-24T13:12:11;12.60;99.90
20712;DHT22;10517;50.742;4.224;2023-04-24T13:14:37;12.70;99.90
20712;DHT22;10517;50.742;4.224;2023-04-24T13:17:03;12.90;99.90
20712;DHT22;10517;50.742;4.224;2023-04-24T13:19:34;12.90;99.90
20712;DHT22;10517;50.742;4.224;2023-04-24T13:22:00;13.00;99.90
20712;DHT22;10517;50.742;4.224;2023-04-24T13:24:26;13.10;99.90
20712;DHT22;10517;50.742;4.224;2023-04-24T13:26:53;13.40;99.90
20712;DHT22;10517;50.742;4.224;2023-04-24T13:29:18;13.50;99.90
20712;DHT22;10517;50.742;4.224;2023-04-24T13:31:45;13.90;99.90
20712;DHT22;10517;50.742;4.224;2023-04-24T13:34:11;14.30;99.90
20712;DHT22;10517;50.742;4.224;2023-04-24T13:36:36;14.30;99.90
20712;DHT22;10517;50.742;4.224;2023-04-24T13:39:02;13.90;99.90
20712;DHT22;10517;50.742;4.224;2023-04-24T13:41:30;13.60;99.90
20712;DHT22;10517;50.742;4.224;2023-04-24T13:43:55;13.20;99.90
20712;DHT22;10517;50.742;4.224;2023-04-24T13:46:21;13.20;99.90
20712;DHT22;10517;50.742;4.224;2023-04-24T13:48:47;13.10;99.90
20712;DHT22;10517;50.742;4.224;2023-04-24T13:51:13;13.00;99.90
20712;DHT22;10517;50.742;4.224;2023-04-24T13:53:38;12.90;99.90
20712;DHT22;10517;50.742;4.224;2023-04-24T13:56:05;12.90;99.90
20712;DHT22;10517;50.742;4.224;2023-04-24T13:58:31;12.70;99.90
20712;DHT22;10517;50.742;4.224;2023-04-24T14:00:57;12.70;99.90
20712;DHT22;10517;50.742;4.224;2023-04-24T14:03:23;12.60;99.90
20712;DHT22;10517;50.742;4.224;2023-04-24T14:05:49;12.40;99.90
20712;DHT22;10517;50.742;4.224;2023-04-24T14:08:15;12.20;99.90
20712;DHT22;10517;50.742;4.224;2023-04-24T14:10:41;12.10;99.90
20712;DHT22;10517;50.742;4.224;2023-04-24T14:13:07;12.20;99.90
20712;DHT22;10517;50.742;4.224;2023-04-24T14:15:35;12.20;99.90
20712;DHT22;10517;50.742;4.224;2023-04-24T14:18:01;12.30;99.90
20712;DHT22;10517;50.742;4.224;2023-04-24T14:20:26;12.10;99.90
20712;DHT22;10517;50.742;4.224;2023-04-24T14:22:52;12.10;99.90
20712;DHT22;10517;50.742;4.224;2023-04-24T14:25:18;12.00;99.90
20712;DHT22;10517;50.742;4.224;2023-04-24T14:27:44;12.00;99.90
20712;DHT22;10517;50.742;4.224;2023-04-24T14:30:11;12.10;99.90
20712;DHT22;10517;50.742;4.224;2023-04-24T14:32:38;12.20;99.90
20712;DHT22;10517;50.742;4.224;2023-04-24T14:35:05;12.40;99.90
20712;DHT22;10517;50.742;4.224;2023-04-24T14:37:31;12.40;99.90
20712;DHT22;10517;50.742;4.224;2023-04-24T14:39:57;12.40;99.90
20712;DHT22;10517;50.742;4.224;2023-04-24T14:42:23;12.40;99.90
20712;DHT22;10517;50.742;4.224;2023-04-24T14:44:49;12.50;99.90
20712;DHT22;10517;50.742;4.224;2023-04-24T14:47:14;12.40;99.90
20712;DHT22;10517;50.742;4.224;2023-04-24T14:49:43;12.40;99.90
20712;DHT22;10517;50.742;4.224;2023-04-24T14:52:09;12.50;99.90
20712;DHT22;10517;50.742;4.224;2023-04-24T14:54:35;12.30;99.90
20712;DHT22;10517;50.742;4.224;2023-04-24T14:57:01;12.10;99.90
20712;DHT22;10517;50.742;4.224;2023-04-24T14:59:28;12.00;99.90
20712;DHT22;10517;50.742;4.224;2023-04-24T15:01:54;12.00;99.90
20712;DHT22;10517;50.742;4.224;2023-04-24T15:04:24;11.90;99.90
20712;DHT22;10517;50.742;4.224;2023-04-24T15:06:51;12.00;99.90
20712;DHT22;10517;50.742;4.224;2023-04-24T15:09:17;12.00;99.90
20712;DHT22;10517;50.742;4.224;2023-04-24T15:11:42;12.00;99.90
20712;DHT22;10517;50.742;4.224;2023-04-24T15:14:08;11.80;99.90
20712;DHT22;10517;50.742;4.224;2023-04-24T15:16:34;11.80;99.90
20712;DHT22;10517;50.742;4.224;2023-04-24T15:18:59;11.90;99.90
20712;DHT22;10517;50.742;4.224;2023-04-24T15:21:25;12.00;99.90
20712;DHT22;10517;50.742;4.224;2023-04-24T15:23:51;12.10;99.90
20712;DHT22;10517;50.742;4.224;2023-04-24T15:26:18;12.20;99.90
20712;DHT22;10517;50.742;4.224;2023-04-24T15:28:44;12.20;99.90
20712;DHT22;10517;50.742;4.224;2023-04-24T15:31:12;12.10;99.90
20712;DHT22;10517;50.742;4.224;2023-04-24T15:33:37;11.90;99.90
20712;DHT22;10517;50.742;4.224;2023-04-24T15:36:03;11.90;99.90
20712;DHT22;10517;50.742;4.224;2023-04-24T15:38:29;11.90;99.90
20712;DHT22;10517;50.742;4.224;2023-04-24T15:40:55;11.90;99.90
20712;DHT22;10517;50.742;4.224;2023-04-24T15:43:21;11.80;99.90
20712;DHT22;10517;50.742;4.224;2023-04-24T15:45:49;11.90;99.90
20712;DHT22;10517;50.742;4.224;2023-04-24T15:48:15;11.90;99.90